INDIA METEOROLOGICAL DEPARTMENT, R.M.C. NEW DELHI
Dated:27 - 2 - 2017
METARS OF ALTERNATE AIRPORTS
Delhi      
VIDP 271100Z 29007KT 4500 HZ NSC 28/05 Q1014 NOSIG=
Amritsar   
VIAR 271100Z VRB02KT 5000 HZ NSC 26/09 Q1014 NOSIG=
Lucknow    
VILK 271100Z 30006KT 5000 HZ NSC 29/06 Q1012 NOSIG=
Jaipur     
VIJP 271100Z VRB02KT 7000 NSC 31/M02 Q1014 NOSIG=
Ahmedabad  
VAAH 271100Z 07004KT 8000 NSC 36/04 Q1010 NOSIG=
Udaipur    
VAUD 271100Z 15004KT 6000 NSC 33/05 Q1014 NOSIG=
Mumbai     
VABB 271100Z 28009KT 3000 FU NSC 33/16 Q1009 NOSIG=